sensor_id;sensor_type;location;lat;lon;timestamp;P1;durP1;ratioP1;P2;durP2;ratioP2
40793;SDS011;26502;51.886;15.604;2024-03-06T00:01:15;36.30;;;20.60;;
40793;SDS011;26502;51.886;15.604;2024-03-06T00:06:40;32.90;;;20.50;;
40793;SDS011;26502;51.886;15.604;2024-03-06T00:12:06;33.50;;;20.50;;
40793;SDS011;26502;51.886;15.604;2024-03-06T00:17:33;34.30;;;20.10;;
40793;SDS011;26502;51.886;15.604;2024-03-06T00:22:59;33.10;;;19.80;;
40793;SDS011;26502;51.886;15.604;2024-03-06T00:28:25;35.30;;;21.20;;
40793;SDS011;26502;51.886;15.604;2024-03-06T00:33:50;36.60;;;21.50;;
40793;SDS011;26502;51.886;15.604;2024-03-06T00:39:16;36.90;;;21.70;;
40793;SDS011;26502;51.886;15.604;2024-03-06T00:44:43;35.80;;;20.60;;
40793;SDS011;26502;51.886;15.604;2024-03-06T00:50:09;37.10;;;21.90;;
40793;SDS011;26502;51.886;15.604;2024-03-06T00:55:35;36.50;;;22.50;;
40793;SDS011;26502;51.886;15.604;2024-03-06T01:01:01;39.00;;;22.60;;
40793;SDS011;26502;51.886;15.604;2024-03-06T01:06:28;36.00;;;21.60;;
40793;SDS011;26502;51.886;15.604;2024-03-06T01:11:54;40.90;;;22.40;;
40793;SDS011;26502;51.886;15.604;2024-03-06T01:17:20;43.20;;;24.80;;
40793;SDS011;26502;51.886;15.604;2024-03-06T01:22:46;38.50;;;23.60;;
40793;SDS011;26502;51.886;15.604;2024-03-06T01:28:12;39.80;;;23.80;;
40793;SDS011;26502;51.886;15.604;2024-03-06T01:33:38;38.40;;;23.40;;
40793;SDS011;26502;51.886;15.604;2024-03-06T01:39:04;42.60;;;25.50;;
40793;SDS011;26502;51.886;15.604;2024-03-06T01:44:33;38.70;;;23.70;;
40793;SDS011;26502;51.886;15.604;2024-03-06T01:49:59;44.80;;;26.50;;
40793;SDS011;26502;51.886;15.604;2024-03-06T01:55:25;54.70;;;29.50;;
40793;SDS011;26502;51.886;15.604;2024-03-06T02:00:51;46.00;;;27.20;;
40793;SDS011;26502;51.886;15.604;2024-03-06T02:06:18;42.30;;;27.40;;
40793;SDS011;26502;51.886;15.604;2024-03-06T02:11:45;48.70;;;28.70;;
40793;SDS011;26502;51.886;15.604;2024-03-06T02:17:13;49.30;;;29.00;;
40793;SDS011;26502;51.886;15.604;2024-03-06T02:22:39;55.60;;;30.70;;
40793;SDS011;26502;51.886;15.604;2024-03-06T02:28:05;58.50;;;32.30;;
40793;SDS011;26502;51.886;15.604;2024-03-06T02:33:31;61.10;;;33.90;;
40793;SDS011;26502;51.886;15.604;2024-03-06T02:38:57;54.50;;;31.10;;
40793;SDS011;26502;51.886;15.604;2024-03-06T02:44:23;56.00;;;31.40;;
40793;SDS011;26502;51.886;15.604;2024-03-06T02:49:49;49.60;;;31.10;;
40793;SDS011;26502;51.886;15.604;2024-03-06T02:55:15;48.30;;;28.60;;
40793;SDS011;26502;51.886;15.604;2024-03-06T03:00:41;47.00;;;29.50;;
40793;SDS011;26502;51.886;15.604;2024-03-06T03:06:08;48.40;;;28.80;;
40793;SDS011;26502;51.886;15.604;2024-03-06T03:11:34;64.80;;;31.10;;
40793;SDS011;26502;51.886;15.604;2024-03-06T03:17:00;54.30;;;30.70;;
40793;SDS011;26502;51.886;15.604;2024-03-06T03:22:28;48.70;;;29.10;;
40793;SDS011;26502;51.886;15.604;2024-03-06T03:27:54;45.80;;;28.80;;
40793;SDS011;26502;51.886;15.604;2024-03-06T03:33:20;49.30;;;27.60;;
40793;SDS011;26502;51.886;15.604;2024-03-06T03:38:46;45.20;;;25.40;;
40793;SDS011;26502;51.886;15.604;2024-03-06T03:44:12;47.20;;;29.50;;
40793;SDS011;26502;51.886;15.604;2024-03-06T03:49:39;47.10;;;28.30;;
40793;SDS011;26502;51.886;15.604;2024-03-06T03:55:05;47.30;;;27.40;;
40793;SDS011;26502;51.886;15.604;2024-03-06T04:00:32;47.10;;;27.30;;
40793;SDS011;26502;51.886;15.604;2024-03-06T04:05:58;49.10;;;28.40;;
40793;SDS011;26502;51.886;15.604;2024-03-06T04:11:24;42.50;;;25.60;;
40793;SDS011;26502;51.886;15.604;2024-03-06T04:16:50;46.20;;;28.10;;
40793;SDS011;26502;51.886;15.604;2024-03-06T04:22:16;40.80;;;25.50;;
40793;SDS011;26502;51.886;15.604;2024-03-06T04:27:44;47.20;;;26.20;;
40793;SDS011;26502;51.886;15.604;2024-03-06T04:33:10;49.30;;;27.50;;
40793;SDS011;26502;51.886;15.604;2024-03-06T04:38:40;51.60;;;28.60;;
40793;SDS011;26502;51.886;15.604;2024-03-06T04:44:05;43.70;;;28.10;;
40793;SDS011;26502;51.886;15.604;2024-03-06T04:49:33;46.10;;;26.30;;
40793;SDS011;26502;51.886;15.604;2024-03-06T04:54:59;42.30;;;26.10;;
40793;SDS011;26502;51.886;15.604;2024-03-06T05:00:26;43.40;;;25.70;;
40793;SDS011;26502;51.886;15.604;2024-03-06T05:05:52;42.00;;;26.00;;
40793;SDS011;26502;51.886;15.604;2024-03-06T05:11:19;37.50;;;24.50;;
40793;SDS011;26502;51.886;15.604;2024-03-06T05:16:44;39.90;;;25.80;;
40793;SDS011;26502;51.886;15.604;2024-03-06T05:22:11;40.00;;;24.90;;
40793;SDS011;26502;51.886;15.604;2024-03-06T05:27:38;39.80;;;25.50;;
40793;SDS011;26502;51.886;15.604;2024-03-06T05:33:04;35.60;;;21.90;;
40793;SDS011;26502;51.886;15.604;2024-03-06T05:38:30;37.30;;;24.30;;
40793;SDS011;26502;51.886;15.604;2024-03-06T05:43:56;36.50;;;23.40;;
40793;SDS011;26502;51.886;15.604;2024-03-06T05:49:22;37.90;;;24.20;;
40793;SDS011;26502;51.886;15.604;2024-03-06T05:54:48;33.20;;;22.60;;
40793;SDS011;26502;51.886;15.604;2024-03-06T06:00:15;40.50;;;25.10;;
40793;SDS011;26502;51.886;15.604;2024-03-06T06:05:44;37.50;;;24.90;;
40793;SDS011;26502;51.886;15.604;2024-03-06T06:11:11;38.10;;;24.00;;
40793;SDS011;26502;51.886;15.604;2024-03-06T06:16:37;40.80;;;25.70;;
40793;SDS011;26502;51.886;15.604;2024-03-06T06:22:04;44.70;;;24.80;;
40793;SDS011;26502;51.886;15.604;2024-03-06T06:27:31;40.40;;;26.20;;
40793;SDS011;26502;51.886;15.604;2024-03-06T06:32:59;35.20;;;24.30;;
40793;SDS011;26502;51.886;15.604;2024-03-06T06:38:25;43.10;;;26.00;;
40793;SDS011;26502;51.886;15.604;2024-03-06T06:43:51;40.50;;;24.60;;
40793;SDS011;26502;51.886;15.604;2024-03-06T06:49:17;38.60;;;24.50;;
40793;SDS011;26502;51.886;15.604;2024-03-06T06:54:43;41.40;;;24.50;;
40793;SDS011;26502;51.886;15.604;2024-03-06T07:00:10;39.00;;;24.70;;
40793;SDS011;26502;51.886;15.604;2024-03-06T07:05:41;37.50;;;24.80;;
40793;SDS011;26502;51.886;15.604;2024-03-06T07:11:07;35.70;;;24.90;;
40793;SDS011;26502;51.886;15.604;2024-03-06T07:16:34;37.90;;;24.90;;
40793;SDS011;26502;51.886;15.604;2024-03-06T07:22:05;36.40;;;24.50;;
40793;SDS011;26502;51.886;15.604;2024-03-06T07:27:32;33.50;;;22.60;;
40793;SDS011;26502;51.886;15.604;2024-03-06T07:33:00;37.30;;;24.20;;
40793;SDS011;26502;51.886;15.604;2024-03-06T07:38:27;39.30;;;24.20;;
40793;SDS011;26502;51.886;15.604;2024-03-06T07:43:53;33.10;;;19.80;;
40793;SDS011;26502;51.886;15.604;2024-03-06T07:49:19;30.70;;;21.00;;
40793;SDS011;26502;51.886;15.604;2024-03-06T07:54:45;30.90;;;21.40;;
40793;SDS011;26502;51.886;15.604;2024-03-06T08:00:11;32.10;;;22.90;;
40793;SDS011;26502;51.886;15.604;2024-03-06T08:05:37;35.10;;;22.60;;
40793;SDS011;26502;51.886;15.604;2024-03-06T08:11:02;28.50;;;18.60;;
40793;SDS011;26502;51.886;15.604;2024-03-06T08:16:27;33.10;;;22.40;;
40793;SDS011;26502;51.886;15.604;2024-03-06T08:21:52;33.10;;;21.80;;
40793;SDS011;26502;51.886;15.604;2024-03-06T08:27:17;32.40;;;22.80;;
40793;SDS011;26502;51.886;15.604;2024-03-06T08:32:42;35.20;;;22.80;;
40793;SDS011;26502;51.886;15.604;2024-03-06T08:38:07;35.60;;;24.40;;
40793;SDS011;26502;51.886;15.604;2024-03-06T08:43:32;29.90;;;21.40;;
40793;SDS011;26502;51.886;15.604;2024-03-06T08:48:57;34.80;;;22.10;;
40793;SDS011;26502;51.886;15.604;2024-03-06T08:54:22;27.60;;;19.50;;
40793;SDS011;26502;51.886;15.604;2024-03-06T08:59:48;30.60;;;20.50;;
40793;SDS011;26502;51.886;15.604;2024-03-06T09:05:12;28.00;;;19.70;;
40793;SDS011;26502;51.886;15.604;2024-03-06T09:10:37;28.60;;;20.60;;
40793;SDS011;26502;51.886;15.604;2024-03-06T09:16:03;26.00;;;18.40;;
40793;SDS011;26502;51.886;15.604;2024-03-06T09:21:28;27.00;;;19.70;;
40793;SDS011;26502;51.886;15.604;2024-03-06T09:26:53;30.10;;;19.80;;
40793;SDS011;26502;51.886;15.604;2024-03-06T09:32:18;27.20;;;19.10;;
40793;SDS011;26502;51.886;15.604;2024-03-06T09:37:46;24.00;;;17.90;;
40793;SDS011;26502;51.886;15.604;2024-03-06T09:43:11;25.80;;;19.10;;
40793;SDS011;26502;51.886;15.604;2024-03-06T09:48:36;24.70;;;17.90;;
40793;SDS011;26502;51.886;15.604;2024-03-06T09:54:09;23.00;;;17.10;;
40793;SDS011;26502;51.886;15.604;2024-03-06T09:59:36;19.90;;;14.80;;
40793;SDS011;26502;51.886;15.604;2024-03-06T10:05:06;19.40;;;15.50;;
40793;SDS011;26502;51.886;15.604;2024-03-06T10:10:43;21.10;;;15.20;;
40793;SDS011;26502;51.886;15.604;2024-03-06T10:16:10;20.20;;;15.80;;
40793;SDS011;26502;51.886;15.604;2024-03-06T10:21:36;25.60;;;16.80;;
40793;SDS011;26502;51.886;15.604;2024-03-06T10:27:01;25.80;;;18.00;;
40793;SDS011;26502;51.886;15.604;2024-03-06T10:32:27;24.50;;;17.20;;
40793;SDS011;26502;51.886;15.604;2024-03-06T10:37:53;27.60;;;19.40;;
40793;SDS011;26502;51.886;15.604;2024-03-06T10:43:20;28.50;;;19.70;;
40793;SDS011;26502;51.886;15.604;2024-03-06T10:48:46;27.40;;;19.30;;
40793;SDS011;26502;51.886;15.604;2024-03-06T10:54:12;31.30;;;20.50;;
40793;SDS011;26502;51.886;15.604;2024-03-06T10:59:39;31.20;;;21.20;;
40793;SDS011;26502;51.886;15.604;2024-03-06T11:05:07;28.60;;;20.40;;
40793;SDS011;26502;51.886;15.604;2024-03-06T11:10:33;34.80;;;21.20;;
40793;SDS011;26502;51.886;15.604;2024-03-06T11:15:59;32.50;;;21.90;;
40793;SDS011;26502;51.886;15.604;2024-03-06T11:21:29;30.00;;;19.70;;
40793;SDS011;26502;51.886;15.604;2024-03-06T11:26:59;30.40;;;21.40;;
40793;SDS011;26502;51.886;15.604;2024-03-06T11:32:27;29.20;;;20.00;;
40793;SDS011;26502;51.886;15.604;2024-03-06T11:37:53;28.70;;;19.60;;
40793;SDS011;26502;51.886;15.604;2024-03-06T11:43:25;26.10;;;18.40;;
40793;SDS011;26502;51.886;15.604;2024-03-06T11:48:53;30.30;;;18.80;;
40793;SDS011;26502;51.886;15.604;2024-03-06T11:54:20;24.40;;;19.20;;
40793;SDS011;26502;51.886;15.604;2024-03-06T11:59:47;24.10;;;17.50;;
40793;SDS011;26502;51.886;15.604;2024-03-06T12:05:12;23.60;;;17.50;;
40793;SDS011;26502;51.886;15.604;2024-03-06T12:10:38;21.40;;;15.40;;
40793;SDS011;26502;51.886;15.604;2024-03-06T12:16:06;22.90;;;16.40;;
40793;SDS011;26502;51.886;15.604;2024-03-06T12:21:34;24.10;;;16.10;;
40793;SDS011;26502;51.886;15.604;2024-03-06T12:27:00;20.60;;;15.50;;
40793;SDS011;26502;51.886;15.604;2024-03-06T12:32:26;22.30;;;15.60;;
40793;SDS011;26502;51.886;15.604;2024-03-06T12:37:51;20.20;;;15.20;;
40793;SDS011;26502;51.886;15.604;2024-03-06T12:43:16;21.60;;;16.10;;
40793;SDS011;26502;51.886;15.604;2024-03-06T12:48:41;22.20;;;16.60;;
40793;SDS011;26502;51.886;15.604;2024-03-06T12:54:06;23.00;;;16.80;;
40793;SDS011;26502;51.886;15.604;2024-03-06T12:59:32;22.40;;;16.90;;
40793;SDS011;26502;51.886;15.604;2024-03-06T13:04:57;21.40;;;16.20;;
40793;SDS011;26502;51.886;15.604;2024-03-06T13:10:21;21.60;;;15.70;;
40793;SDS011;26502;51.886;15.604;2024-03-06T13:15:46;21.40;;;17.00;;
40793;SDS011;26502;51.886;15.604;2024-03-06T13:21:11;26.80;;;19.70;;
40793;SDS011;26502;51.886;15.604;2024-03-06T13:26:37;25.10;;;19.20;;
40793;SDS011;26502;51.886;15.604;2024-03-06T13:32:02;29.10;;;20.40;;
40793;SDS011;26502;51.886;15.604;2024-03-06T13:37:29;25.70;;;19.70;;
40793;SDS011;26502;51.886;15.604;2024-03-06T13:42:53;27.40;;;19.40;;
40793;SDS011;26502;51.886;15.604;2024-03-06T13:48:19;24.90;;;17.20;;
40793;SDS011;26502;51.886;15.604;2024-03-06T13:53:44;24.90;;;17.30;;
40793;SDS011;26502;51.886;15.604;2024-03-06T13:59:09;25.00;;;17.50;;
40793;SDS011;26502;51.886;15.604;2024-03-06T14:04:35;23.50;;;16.80;;
40793;SDS011;26502;51.886;15.604;2024-03-06T14:09:59;22.90;;;17.10;;
40793;SDS011;26502;51.886;15.604;2024-03-06T14:15:26;23.70;;;16.90;;
40793;SDS011;26502;51.886;15.604;2024-03-06T14:20:51;20.00;;;15.10;;
40793;SDS011;26502;51.886;15.604;2024-03-06T14:26:16;24.00;;;16.40;;
40793;SDS011;26502;51.886;15.604;2024-03-06T14:31:41;21.60;;;15.40;;
40793;SDS011;26502;51.886;15.604;2024-03-06T14:37:07;21.80;;;15.60;;
40793;SDS011;26502;51.886;15.604;2024-03-06T14:42:34;24.20;;;16.70;;
40793;SDS011;26502;51.886;15.604;2024-03-06T14:48:01;22.00;;;15.80;;
40793;SDS011;26502;51.886;15.604;2024-03-06T14:53:27;22.20;;;15.30;;
40793;SDS011;26502;51.886;15.604;2024-03-06T14:58:52;23.60;;;15.10;;
40793;SDS011;26502;51.886;15.604;2024-03-06T15:04:17;21.40;;;15.00;;
40793;SDS011;26502;51.886;15.604;2024-03-06T15:09:42;21.30;;;14.40;;
40793;SDS011;26502;51.886;15.604;2024-03-06T15:15:08;22.30;;;15.60;;
40793;SDS011;26502;51.886;15.604;2024-03-06T15:20:33;21.70;;;15.80;;
40793;SDS011;26502;51.886;15.604;2024-03-06T15:25:58;23.60;;;16.10;;
40793;SDS011;26502;51.886;15.604;2024-03-06T15:31:24;27.60;;;17.30;;
40793;SDS011;26502;51.886;15.604;2024-03-06T15:36:48;25.20;;;17.40;;
40793;SDS011;26502;51.886;15.604;2024-03-06T15:42:13;25.50;;;17.80;;
40793;SDS011;26502;51.886;15.604;2024-03-06T15:47:38;32.70;;;20.80;;
40793;SDS011;26502;51.886;15.604;2024-03-06T15:53:05;30.50;;;19.80;;
40793;SDS011;26502;51.886;15.604;2024-03-06T15:58:30;29.80;;;20.50;;
40793;SDS011;26502;51.886;15.604;2024-03-06T16:03:55;37.10;;;23.10;;
40793;SDS011;26502;51.886;15.604;2024-03-06T16:09:20;35.50;;;24.00;;
40793;SDS011;26502;51.886;15.604;2024-03-06T16:14:45;39.10;;;22.40;;
40793;SDS011;26502;51.886;15.604;2024-03-06T16:20:10;37.90;;;22.90;;
40793;SDS011;26502;51.886;15.604;2024-03-06T16:25:36;33.50;;;20.90;;
40793;SDS011;26502;51.886;15.604;2024-03-06T16:31:01;34.70;;;21.50;;
40793;SDS011;26502;51.886;15.604;2024-03-06T16:36:27;29.90;;;21.00;;
40793;SDS011;26502;51.886;15.604;2024-03-06T16:41:51;34.90;;;22.30;;
40793;SDS011;26502;51.886;15.604;2024-03-06T16:47:17;35.90;;;21.80;;
40793;SDS011;26502;51.886;15.604;2024-03-06T16:52:42;36.30;;;22.90;;
40793;SDS011;26502;51.886;15.604;2024-03-06T16:58:06;33.00;;;22.50;;
40793;SDS011;26502;51.886;15.604;2024-03-06T17:03:33;47.70;;;27.90;;
40793;SDS011;26502;51.886;15.604;2024-03-06T17:08:59;44.00;;;27.50;;
40793;SDS011;26502;51.886;15.604;2024-03-06T17:14:25;48.10;;;29.30;;
40793;SDS011;26502;51.886;15.604;2024-03-06T17:19:51;51.10;;;30.60;;
40793;SDS011;26502;51.886;15.604;2024-03-06T17:25:17;48.30;;;30.10;;
40793;SDS011;26502;51.886;15.604;2024-03-06T17:30:44;55.60;;;31.20;;
40793;SDS011;26502;51.886;15.604;2024-03-06T17:36:10;51.40;;;32.00;;
40793;SDS011;26502;51.886;15.604;2024-03-06T17:41:36;57.80;;;31.00;;
40793;SDS011;26502;51.886;15.604;2024-03-06T17:47:05;49.10;;;32.50;;
40793;SDS011;26502;51.886;15.604;2024-03-06T17:52:31;52.80;;;31.90;;
40793;SDS011;26502;51.886;15.604;2024-03-06T17:57:57;55.20;;;32.10;;
40793;SDS011;26502;51.886;15.604;2024-03-06T18:03:24;52.60;;;31.10;;
40793;SDS011;26502;51.886;15.604;2024-03-06T18:08:50;58.20;;;33.80;;
40793;SDS011;26502;51.886;15.604;2024-03-06T18:14:16;47.40;;;31.20;;
40793;SDS011;26502;51.886;15.604;2024-03-06T18:19:42;52.40;;;31.30;;
40793;SDS011;26502;51.886;15.604;2024-03-06T18:25:09;46.30;;;28.70;;
40793;SDS011;26502;51.886;15.604;2024-03-06T18:30:39;42.00;;;27.40;;
40793;SDS011;26502;51.886;15.604;2024-03-06T18:36:05;45.20;;;28.00;;
40793;SDS011;26502;51.886;15.604;2024-03-06T18:41:32;42.00;;;26.50;;
40793;SDS011;26502;51.886;15.604;2024-03-06T18:46:58;43.00;;;27.30;;
40793;SDS011;26502;51.886;15.604;2024-03-06T18:52:24;37.70;;;24.70;;
40793;SDS011;26502;51.886;15.604;2024-03-06T18:57:53;36.60;;;25.20;;
40793;SDS011;26502;51.886;15.604;2024-03-06T19:03:19;36.80;;;24.00;;
40793;SDS011;26502;51.886;15.604;2024-03-06T19:08:45;39.30;;;25.60;;
40793;SDS011;26502;51.886;15.604;2024-03-06T19:14:12;41.80;;;33.40;;
40793;SDS011;26502;51.886;15.604;2024-03-06T19:19:38;39.70;;;27.20;;
40793;SDS011;26502;51.886;15.604;2024-03-06T19:25:05;36.40;;;24.10;;
40793;SDS011;26502;51.886;15.604;2024-03-06T19:30:32;34.40;;;23.30;;
40793;SDS011;26502;51.886;15.604;2024-03-06T19:35:58;35.80;;;24.40;;
40793;SDS011;26502;51.886;15.604;2024-03-06T19:41:24;34.90;;;24.20;;
40793;SDS011;26502;51.886;15.604;2024-03-06T19:46:50;39.20;;;23.10;;
40793;SDS011;26502;51.886;15.604;2024-03-06T19:52:16;36.70;;;23.70;;
40793;SDS011;26502;51.886;15.604;2024-03-06T19:57:42;36.80;;;24.40;;
40793;SDS011;26502;51.886;15.604;2024-03-06T20:03:08;41.20;;;26.10;;
40793;SDS011;26502;51.886;15.604;2024-03-06T20:08:34;41.80;;;29.00;;
40793;SDS011;26502;51.886;15.604;2024-03-06T20:14:00;43.40;;;26.80;;
40793;SDS011;26502;51.886;15.604;2024-03-06T20:19:26;58.10;;;33.00;;
40793;SDS011;26502;51.886;15.604;2024-03-06T20:24:52;45.70;;;32.40;;
40793;SDS011;26502;51.886;15.604;2024-03-06T20:30:18;47.70;;;31.70;;
40793;SDS011;26502;51.886;15.604;2024-03-06T20:35:44;49.90;;;32.90;;
40793;SDS011;26502;51.886;15.604;2024-03-06T20:41:10;53.20;;;35.70;;
40793;SDS011;26502;51.886;15.604;2024-03-06T20:46:36;55.80;;;36.00;;
40793;SDS011;26502;51.886;15.604;2024-03-06T20:52:05;57.00;;;37.00;;
40793;SDS011;26502;51.886;15.604;2024-03-06T20:57:32;62.10;;;38.70;;
40793;SDS011;26502;51.886;15.604;2024-03-06T21:02:58;63.20;;;39.60;;
40793;SDS011;26502;51.886;15.604;2024-03-06T21:08:24;72.60;;;41.60;;
40793;SDS011;26502;51.886;15.604;2024-03-06T21:13:50;64.40;;;40.70;;
40793;SDS011;26502;51.886;15.604;2024-03-06T21:19:16;60.90;;;40.40;;
40793;SDS011;26502;51.886;15.604;2024-03-06T21:24:43;72.10;;;44.10;;
40793;SDS011;26502;51.886;15.604;2024-03-06T21:30:10;78.10;;;45.10;;
40793;SDS011;26502;51.886;15.604;2024-03-06T21:35:37;70.40;;;42.90;;
40793;SDS011;26502;51.886;15.604;2024-03-06T21:41:04;79.40;;;44.30;;
40793;SDS011;26502;51.886;15.604;2024-03-06T21:46:30;66.50;;;41.50;;
40793;SDS011;26502;51.886;15.604;2024-03-06T21:51:56;68.10;;;39.20;;
40793;SDS011;26502;51.886;15.604;2024-03-06T21:57:22;64.20;;;40.30;;
40793;SDS011;26502;51.886;15.604;2024-03-06T22:02:47;60.10;;;37.20;;
40793;SDS011;26502;51.886;15.604;2024-03-06T22:08:13;62.80;;;37.10;;
40793;SDS011;26502;51.886;15.604;2024-03-06T22:13:39;57.50;;;37.70;;
40793;SDS011;26502;51.886;15.604;2024-03-06T22:19:05;56.70;;;37.10;;
40793;SDS011;26502;51.886;15.604;2024-03-06T22:24:31;60.50;;;38.00;;
40793;SDS011;26502;51.886;15.604;2024-03-06T22:29:57;57.70;;;37.00;;
40793;SDS011;26502;51.886;15.604;2024-03-06T22:35:23;58.80;;;35.90;;
40793;SDS011;26502;51.886;15.604;2024-03-06T22:40:49;60.50;;;37.80;;
40793;SDS011;26502;51.886;15.604;2024-03-06T22:46:17;62.70;;;38.00;;
40793;SDS011;26502;51.886;15.604;2024-03-06T22:51:42;62.30;;;37.80;;
40793;SDS011;26502;51.886;15.604;2024-03-06T22:57:08;57.80;;;37.60;;
40793;SDS011;26502;51.886;15.604;2024-03-06T23:02:34;55.00;;;36.90;;
40793;SDS011;26502;51.886;15.604;2024-03-06T23:08:01;60.80;;;36.30;;
40793;SDS011;26502;51.886;15.604;2024-03-06T23:13:28;52.90;;;33.00;;
40793;SDS011;26502;51.886;15.604;2024-03-06T23:18:54;55.90;;;34.60;;
40793;SDS011;26502;51.886;15.604;2024-03-06T23:24:20;51.80;;;33.10;;
40793;SDS011;26502;51.886;15.604;2024-03-06T23:29:46;48.70;;;30.10;;
40793;SDS011;26502;51.886;15.604;2024-03-06T23:35:12;47.00;;;28.40;;
40793;SDS011;26502;51.886;15.604;2024-03-06T23:40:38;44.80;;;27.30;;
40793;SDS011;26502;51.886;15.604;2024-03-06T23:46:04;42.50;;;26.50;;
40793;SDS011;26502;51.886;15.604;2024-03-06T23:51:30;42.30;;;27.40;;
40793;SDS011;26502;51.886;15.604;2024-03-06T23:56:56;38.40;;;26.10;;
